createdAt,value
2018-01-22T00:00:27.054Z,9.80
2018-01-22T00:01:27.061Z,9.50
2018-01-22T00:02:27.078Z,9.70
2018-01-22T00:03:27.085Z,10.90
2018-01-22T00:04:27.099Z,10.20
2018-01-22T00:05:27.084Z,9.60
2018-01-22T00:06:27.092Z,10.30
2018-01-22T00:07:27.102Z,9.80
2018-01-22T00:08:27.124Z,10.00
2018-01-22T00:09:27.115Z,10.00
2018-01-22T00:10:27.152Z,8.90
2018-01-22T00:11:27.132Z,9.90
2018-01-22T00:12:27.122Z,11.60
2018-01-22T00:13:27.133Z,9.10
2018-01-22T00:14:27.128Z,11.70
2018-01-22T00:15:27.140Z,12.40
2018-01-22T00:16:27.145Z,10.30
2018-01-22T00:17:27.150Z,9.60
2018-01-22T00:18:27.160Z,10.70
2018-01-22T00:19:27.160Z,10.30
2018-01-22T00:20:27.172Z,13.30
2018-01-22T00:21:27.187Z,9.80
2018-01-22T00:22:27.183Z,9.80
2018-01-22T00:23:27.189Z,9.40
2018-01-22T00:24:27.196Z,10.60
2018-01-22T00:25:27.182Z,10.00
2018-01-22T00:26:27.256Z,10.00
2018-01-22T00:27:27.222Z,11.40
2018-01-22T00:28:27.212Z,10.90
2018-01-22T00:29:27.212Z,9.00
2018-01-22T00:30:27.401Z,9.60
2018-01-22T00:31:27.233Z,8.70
2018-01-22T00:32:27.238Z,9.50
2018-01-22T00:33:27.234Z,9.30
2018-01-22T00:34:27.230Z,8.90
2018-01-22T00:35:27.235Z,9.10
2018-01-22T00:36:27.258Z,8.90
2018-01-22T00:37:27.267Z,9.10
2018-01-22T00:38:27.264Z,8.60
2018-01-22T00:39:27.252Z,8.40
2018-01-22T00:40:27.273Z,9.50
2018-01-22T00:41:27.306Z,8.90
2018-01-22T00:42:27.688Z,9.30
2018-01-22T00:43:27.352Z,8.40
2018-01-22T00:44:27.292Z,9.00
2018-01-22T00:45:27.295Z,10.50
2018-01-22T00:46:27.293Z,9.70
2018-01-22T00:47:27.307Z,10.20
2018-01-22T00:48:27.318Z,9.80
2018-01-22T00:49:27.310Z,8.40
2018-01-22T00:50:27.329Z,7.50
2018-01-22T00:51:27.326Z,8.50
2018-01-22T00:52:27.319Z,8.90
2018-01-22T00:53:27.319Z,10.80
2018-01-22T00:54:27.330Z,8.30
2018-01-22T00:55:27.340Z,7.90
2018-01-22T00:56:27.374Z,8.50
2018-01-22T00:57:27.348Z,10.00
2018-01-22T00:58:27.355Z,8.50
2018-01-22T00:59:27.378Z,8.40
2018-01-22T01:00:27.367Z,8.80
2018-01-22T01:01:27.359Z,9.00
2018-01-22T01:02:27.372Z,9.40
2018-01-22T01:03:27.374Z,8.50
2018-01-22T01:04:27.388Z,8.00
2018-01-22T01:05:27.386Z,8.10
2018-01-22T01:06:27.407Z,8.60
2018-01-22T01:07:27.395Z,9.50
2018-01-22T01:08:27.410Z,7.80
2018-01-22T01:09:27.414Z,8.70
2018-01-22T01:10:27.421Z,8.20
2018-01-22T01:11:27.425Z,9.40
2018-01-22T01:12:27.420Z,8.70
2018-01-22T01:13:27.430Z,9.00
2018-01-22T01:14:28.343Z,8.80
2018-01-22T01:15:27.450Z,8.50
2018-01-22T01:16:27.428Z,9.10
2018-01-22T01:17:27.458Z,8.30
2018-01-22T01:18:27.458Z,8.20
2018-01-22T01:19:27.458Z,7.60
2018-01-22T01:20:27.452Z,8.00
2018-01-22T01:21:27.478Z,7.80
2018-01-22T01:22:27.462Z,7.70
2018-01-22T01:23:27.484Z,8.60
2018-01-22T01:24:27.812Z,7.10
2018-01-22T01:25:27.482Z,7.50
2018-01-22T01:26:27.532Z,6.50
2018-01-22T01:27:27.518Z,7.70
2018-01-22T01:28:27.496Z,7.50
2018-01-22T01:29:27.503Z,7.60
2018-01-22T01:30:27.526Z,7.10
2018-01-22T01:31:27.537Z,8.00
2018-01-22T01:32:27.526Z,6.90
2018-01-22T01:33:27.534Z,7.50
2018-01-22T01:34:27.527Z,7.40
2018-01-22T01:35:27.543Z,7.20
2018-01-22T01:36:27.536Z,7.80
2018-01-22T01:37:28.345Z,9.20
2018-01-22T01:38:27.555Z,7.00
2018-01-22T01:39:27.549Z,6.90
2018-01-22T01:40:27.570Z,7.30
2018-01-22T01:41:27.563Z,7.50
2018-01-22T01:42:27.601Z,7.60
2018-01-22T01:43:27.569Z,6.90
2018-01-22T01:44:27.577Z,7.00
2018-01-22T01:45:27.620Z,7.10
2018-01-22T01:46:27.609Z,7.60
2018-01-22T01:47:27.577Z,6.60
2018-01-22T01:48:27.597Z,6.50
2018-01-22T01:49:27.627Z,7.20
2018-01-22T01:50:27.620Z,6.70
2018-01-22T01:51:27.602Z,7.00
2018-01-22T01:52:27.611Z,6.50
2018-01-22T01:53:27.633Z,6.00
2018-01-22T01:54:27.616Z,6.70
2018-01-22T01:55:27.645Z,6.10
2018-01-22T01:56:27.635Z,6.00
2018-01-22T01:57:27.635Z,6.20
2018-01-22T01:58:27.638Z,6.10
2018-01-22T01:59:27.636Z,5.80
2018-01-22T02:00:27.646Z,6.00
2018-01-22T02:01:27.644Z,6.10
2018-01-22T02:02:27.667Z,6.50
2018-01-22T02:03:27.679Z,5.70
2018-01-22T02:04:27.664Z,5.60
2018-01-22T02:05:28.349Z,4.60
2018-01-22T02:06:27.684Z,5.40
2018-01-22T02:07:27.699Z,5.10
2018-01-22T02:08:27.689Z,5.40
2018-01-22T02:09:27.698Z,5.10
2018-01-22T02:10:27.705Z,5.20
2018-01-22T02:11:27.700Z,4.30
2018-01-22T02:12:27.710Z,5.20
2018-01-22T02:13:27.710Z,4.80
2018-01-22T02:14:27.772Z,4.40
2018-01-22T02:15:27.725Z,5.50
2018-01-22T02:16:27.730Z,4.40
2018-01-22T02:17:27.743Z,5.10
2018-01-22T02:18:27.747Z,4.90
2018-01-22T02:19:27.740Z,5.00
2018-01-22T02:20:27.755Z,4.40
2018-01-22T02:21:27.776Z,4.50
2018-01-22T02:22:27.747Z,5.40
2018-01-22T02:23:27.773Z,4.80
2018-01-22T02:24:27.765Z,4.50
2018-01-22T02:25:27.769Z,4.80
2018-01-22T02:26:27.787Z,4.80
2018-01-22T02:27:27.792Z,4.50
2018-01-22T02:28:27.787Z,4.80
2018-01-22T02:29:27.783Z,4.60
2018-01-22T02:30:27.800Z,4.70
2018-01-22T02:31:27.794Z,5.10
2018-01-22T02:32:27.804Z,4.20
2018-01-22T02:33:27.805Z,4.40
2018-01-22T02:34:27.808Z,4.60
2018-01-22T02:35:27.807Z,5.30
2018-01-22T02:36:27.806Z,4.90
2018-01-22T02:37:27.812Z,4.90
2018-01-22T02:38:27.826Z,5.00
2018-01-22T02:39:27.838Z,5.20
2018-01-22T02:40:27.839Z,4.00
2018-01-22T02:41:27.852Z,4.50
2018-01-22T02:42:27.869Z,5.00
2018-01-22T02:43:27.847Z,4.40
2018-01-22T02:44:27.851Z,4.50
2018-01-22T02:45:27.865Z,4.80
2018-01-22T02:46:27.914Z,5.00
2018-01-22T02:47:27.884Z,4.80
2018-01-22T02:48:27.885Z,5.50
2018-01-22T02:49:27.899Z,4.80
2018-01-22T02:50:27.901Z,4.80
2018-01-22T02:51:27.907Z,5.30
2018-01-22T02:52:27.910Z,4.90
2018-01-22T02:53:27.892Z,5.10
2018-01-22T02:54:27.906Z,5.10
2018-01-22T02:55:27.937Z,4.80
2018-01-22T02:56:27.913Z,5.10
2018-01-22T02:57:27.932Z,4.90
2018-01-22T02:58:27.928Z,5.00
2018-01-22T02:59:27.950Z,4.70
2018-01-22T03:00:27.955Z,5.20
2018-01-22T03:01:27.972Z,5.60
2018-01-22T03:02:27.943Z,5.40
2018-01-22T03:03:27.981Z,5.00
2018-01-22T03:04:27.953Z,4.70
2018-01-22T03:05:27.993Z,4.60
2018-01-22T03:06:27.979Z,4.90
2018-01-22T03:07:27.969Z,4.40
2018-01-22T03:08:27.959Z,4.80
2018-01-22T03:09:27.985Z,4.90
2018-01-22T03:10:27.993Z,4.90
2018-01-22T03:11:28.002Z,4.70
2018-01-22T03:12:28.007Z,5.20
2018-01-22T03:13:27.992Z,5.10
2018-01-22T03:14:27.996Z,5.50
2018-01-22T03:15:28.006Z,4.90
2018-01-22T03:16:28.005Z,5.90
2018-01-22T03:17:28.028Z,5.70
2018-01-22T03:18:28.040Z,5.20
2018-01-22T03:19:28.027Z,5.10
2018-01-22T03:20:28.044Z,5.30
2018-01-22T03:21:28.057Z,4.90
2018-01-22T03:22:28.085Z,5.60
2018-01-22T03:23:28.075Z,4.70
2018-01-22T03:24:28.065Z,4.90
2018-01-22T03:25:28.049Z,5.40
2018-01-22T03:26:28.071Z,5.20
2018-01-22T03:27:28.077Z,4.80
2018-01-22T03:28:28.066Z,4.40
2018-01-22T03:29:28.083Z,4.50
2018-01-22T03:30:28.104Z,4.60
2018-01-22T03:31:28.096Z,4.60
2018-01-22T03:32:28.089Z,5.10
2018-01-22T03:33:28.112Z,4.90
2018-01-22T03:34:28.090Z,4.90
2018-01-22T03:35:28.098Z,5.00
2018-01-22T03:36:28.100Z,5.10
2018-01-22T03:37:28.113Z,4.50
2018-01-22T03:38:28.106Z,4.50
2018-01-22T03:39:28.118Z,4.90
2018-01-22T03:40:28.127Z,5.20
2018-01-22T03:41:28.135Z,4.50
2018-01-22T03:42:28.137Z,5.10
2018-01-22T03:43:28.138Z,4.80
2018-01-22T03:44:28.132Z,5.00
2018-01-22T03:45:28.143Z,4.90
2018-01-22T03:46:28.151Z,4.30
2018-01-22T03:47:28.157Z,5.20
2018-01-22T03:48:28.166Z,4.40
2018-01-22T03:49:28.175Z,4.80
2018-01-22T03:50:28.176Z,5.40
2018-01-22T03:51:28.184Z,4.50
2018-01-22T03:52:28.181Z,4.90
2018-01-22T03:53:28.178Z,4.50
2018-01-22T03:54:28.185Z,4.50
2018-01-22T03:55:28.208Z,4.40
2018-01-22T03:56:28.198Z,4.50
2018-01-22T03:57:28.210Z,4.20
2018-01-22T03:58:28.226Z,4.80
2018-01-22T03:59:28.219Z,4.90
2018-01-22T04:00:28.220Z,4.70
2018-01-22T04:01:28.221Z,4.30
2018-01-22T04:02:28.245Z,4.30
2018-01-22T04:03:28.222Z,4.30
2018-01-22T04:04:28.254Z,4.80
2018-01-22T04:05:28.251Z,4.60
2018-01-22T04:06:28.242Z,4.40
2018-01-22T04:07:28.276Z,4.40
2018-01-22T04:08:28.248Z,5.10
2018-01-22T04:09:28.254Z,4.70
2018-01-22T04:10:28.251Z,4.30
2018-01-22T04:11:28.266Z,4.90
2018-01-22T04:12:28.281Z,4.70
2018-01-22T04:13:28.307Z,4.90
2018-01-22T04:14:28.282Z,4.50
2018-01-22T04:15:28.308Z,4.60
2018-01-22T04:16:28.328Z,5.30
2018-01-22T04:17:28.285Z,4.80
2018-01-22T04:18:28.310Z,5.10
2018-01-22T04:19:28.309Z,5.20
2018-01-22T04:20:28.303Z,5.40
2018-01-22T04:21:28.312Z,5.40
2018-01-22T04:22:28.314Z,5.50
2018-01-22T04:23:28.328Z,5.70
2018-01-22T04:24:28.320Z,5.80
2018-01-22T04:25:28.363Z,5.90
2018-01-22T04:26:28.336Z,6.50
2018-01-22T04:27:28.350Z,6.50
2018-01-22T04:28:28.342Z,6.10
2018-01-22T04:29:28.353Z,5.90
2018-01-22T04:30:28.350Z,6.20
2018-01-22T04:31:28.418Z,6.80
2018-01-22T04:32:28.366Z,6.40
2018-01-22T04:33:28.370Z,6.30
2018-01-22T04:34:28.374Z,6.50
2018-01-22T04:35:28.372Z,6.10
2018-01-22T04:36:28.381Z,6.00
2018-01-22T04:37:28.389Z,7.00
2018-01-22T04:38:28.391Z,6.70
2018-01-22T04:39:28.394Z,6.60
2018-01-22T04:40:28.398Z,7.10
2018-01-22T04:41:28.398Z,6.60
2018-01-22T04:42:28.418Z,6.60
2018-01-22T04:43:28.418Z,6.60
2018-01-22T04:44:28.428Z,7.50
2018-01-22T04:45:28.418Z,7.20
2018-01-22T04:46:28.434Z,7.20
2018-01-22T04:47:28.435Z,7.20
2018-01-22T04:48:28.453Z,7.00
2018-01-22T04:49:28.449Z,6.80
2018-01-22T04:50:28.459Z,7.20
2018-01-22T04:51:28.451Z,7.60
2018-01-22T04:52:28.460Z,8.70
2018-01-22T04:53:28.469Z,7.70
2018-01-22T04:54:28.512Z,7.00
2018-01-22T04:55:28.474Z,7.60
2018-01-22T04:56:28.475Z,7.50
2018-01-22T04:57:28.481Z,7.30
2018-01-22T04:58:28.488Z,7.50
2018-01-22T04:59:28.487Z,7.90
2018-01-22T05:00:28.495Z,8.40
2018-01-22T05:01:28.494Z,8.60
2018-01-22T05:02:28.501Z,8.20
2018-01-22T05:03:28.507Z,8.80
2018-01-22T05:04:28.514Z,8.20
2018-01-22T05:05:28.521Z,8.90
2018-01-22T05:06:28.524Z,8.20
2018-01-22T05:07:28.590Z,8.60
2018-01-22T05:08:28.526Z,8.60
2018-01-22T05:09:28.542Z,9.20
2018-01-22T05:10:28.545Z,8.50
2018-01-22T05:11:28.544Z,8.80
2018-01-22T05:12:29.354Z,9.60
2018-01-22T05:13:28.549Z,8.70
2018-01-22T05:14:28.568Z,9.10
2018-01-22T05:15:28.579Z,9.40
2018-01-22T05:16:28.562Z,8.40
2018-01-22T05:17:28.585Z,9.60
2018-01-22T05:18:28.576Z,9.60
2018-01-22T05:19:28.581Z,8.90
2018-01-22T05:20:28.594Z,9.20
2018-01-22T05:21:28.590Z,10.10
2018-01-22T05:22:28.693Z,10.20
2018-01-22T05:23:28.600Z,10.20
2018-01-22T05:24:28.603Z,8.90
2018-01-22T05:25:28.616Z,9.50
2018-01-22T05:26:28.614Z,9.20
2018-01-22T05:27:28.619Z,8.40
2018-01-22T05:28:28.626Z,8.50
2018-01-22T05:29:28.634Z,9.10
2018-01-22T05:30:28.642Z,9.30
2018-01-22T05:31:28.643Z,8.00
2018-01-22T05:32:28.647Z,9.40
2018-01-22T05:33:28.653Z,9.20
2018-01-22T05:34:28.650Z,8.60
2018-01-22T05:35:29.356Z,8.20
2018-01-22T05:36:28.657Z,8.60
2018-01-22T05:37:28.667Z,8.90
2018-01-22T05:38:28.674Z,8.10
2018-01-22T05:39:28.677Z,8.90
2018-01-22T05:40:28.686Z,8.40
2018-01-22T05:41:28.683Z,9.30
2018-01-22T05:42:28.686Z,9.00
2018-01-22T05:43:28.696Z,9.50
2018-01-22T05:44:28.699Z,9.10
2018-01-22T05:45:28.705Z,9.80
2018-01-22T05:46:28.714Z,9.30
2018-01-22T05:47:28.712Z,9.80
2018-01-22T05:48:28.719Z,9.80
2018-01-22T05:49:28.724Z,9.30
2018-01-22T05:50:28.732Z,10.00
2018-01-22T05:51:28.729Z,11.40
2018-01-22T05:52:28.740Z,10.40
2018-01-22T05:53:28.740Z,10.40
2018-01-22T05:54:28.744Z,9.50
2018-01-22T05:55:28.749Z,9.70
2018-01-22T05:56:28.754Z,9.50
2018-01-22T05:57:28.750Z,10.60
2018-01-22T05:58:28.829Z,10.70
2018-01-22T05:59:28.760Z,12.30
2018-01-22T06:00:28.768Z,11.40
2018-01-22T06:01:28.775Z,10.20
2018-01-22T06:02:28.782Z,10.90
2018-01-22T06:03:28.829Z,11.40
2018-01-22T06:04:28.801Z,10.90
2018-01-22T06:05:28.798Z,10.80
2018-01-22T06:06:28.805Z,10.40
2018-01-22T06:07:28.814Z,10.60
2018-01-22T06:08:28.829Z,10.00
2018-01-22T06:09:28.830Z,10.00
2018-01-22T06:10:28.830Z,10.00
2018-01-22T06:11:28.824Z,10.60
2018-01-22T06:12:28.837Z,10.70
2018-01-22T06:13:28.838Z,11.10
2018-01-22T06:14:28.843Z,11.00
2018-01-22T06:15:28.860Z,11.20
2018-01-22T06:16:28.859Z,11.50
2018-01-22T06:17:28.856Z,11.90
2018-01-22T06:18:28.861Z,10.90
2018-01-22T06:19:28.865Z,12.00
2018-01-22T06:20:28.872Z,11.40
2018-01-22T06:21:28.885Z,11.80
2018-01-22T06:22:28.886Z,11.00
2018-01-22T06:23:28.887Z,11.60
2018-01-22T06:24:28.893Z,10.40
2018-01-22T06:25:28.895Z,11.80
2018-01-22T06:26:29.861Z,10.60
2018-01-22T06:27:28.909Z,11.30
2018-01-22T06:28:28.912Z,11.60
2018-01-22T06:29:28.916Z,10.70
2018-01-22T06:30:28.929Z,11.00
2018-01-22T06:31:28.928Z,11.00
2018-01-22T06:32:28.938Z,11.30
2018-01-22T06:33:28.936Z,11.60
2018-01-22T06:34:28.948Z,11.70
2018-01-22T06:35:28.966Z,11.90
2018-01-22T06:36:28.955Z,11.10
2018-01-22T06:37:28.957Z,11.60
2018-01-22T06:38:28.960Z,12.30
2018-01-22T06:39:28.975Z,11.70
2018-01-22T06:40:28.972Z,12.30
2018-01-22T06:41:28.974Z,12.60
2018-01-22T06:42:28.977Z,14.60
2018-01-22T06:43:28.989Z,15.00
2018-01-22T06:44:29.001Z,11.50
2018-01-22T06:45:28.988Z,12.80
2018-01-22T06:46:29.003Z,13.80
2018-01-22T06:47:29.006Z,13.60
2018-01-22T06:48:29.012Z,14.00
2018-01-22T06:49:29.012Z,14.20
2018-01-22T06:50:29.022Z,14.50
2018-01-22T06:51:29.022Z,13.80
2018-01-22T06:52:29.033Z,14.30
2018-01-22T06:53:29.034Z,15.00
2018-01-22T06:54:29.044Z,15.70
2018-01-22T06:55:29.039Z,15.70
2018-01-22T06:56:29.046Z,15.70
2018-01-22T06:57:29.059Z,15.00
2018-01-22T06:58:29.065Z,15.50
2018-01-22T06:59:29.087Z,16.90
2018-01-22T07:00:29.070Z,16.10
2018-01-22T07:01:29.077Z,15.70
2018-01-22T07:02:29.080Z,15.60
2018-01-22T07:03:29.089Z,15.60
2018-01-22T07:04:29.089Z,16.20
2018-01-22T07:05:29.101Z,16.20
2018-01-22T07:06:29.103Z,15.40
2018-01-22T07:07:29.107Z,15.70
2018-01-22T07:08:29.124Z,17.60
2018-01-22T07:09:29.128Z,17.70
2018-01-22T07:10:29.127Z,18.20
2018-01-22T07:11:29.166Z,18.60
2018-01-22T07:12:29.143Z,19.20
2018-01-22T07:13:29.134Z,20.40
2018-01-22T07:14:29.147Z,20.00
2018-01-22T07:15:29.142Z,19.60
2018-01-22T07:16:29.158Z,20.00
2018-01-22T07:17:29.147Z,20.90
2018-01-22T07:18:29.176Z,21.40
2018-01-22T07:19:29.158Z,21.00
2018-01-22T07:20:29.178Z,19.90
2018-01-22T07:21:29.181Z,20.50
2018-01-22T07:22:29.187Z,21.70
2018-01-22T07:23:29.192Z,21.00
2018-01-22T07:24:29.197Z,22.10
2018-01-22T07:25:29.198Z,21.20
2018-01-22T07:26:29.200Z,20.60
2018-01-22T07:27:29.210Z,21.10
2018-01-22T07:28:29.216Z,19.80
2018-01-22T07:29:29.259Z,18.40
2018-01-22T07:30:29.237Z,19.90
2018-01-22T07:31:29.226Z,19.60
2018-01-22T07:32:29.242Z,19.90
2018-01-22T07:33:29.241Z,20.40
2018-01-22T07:34:29.242Z,19.50
2018-01-22T07:35:29.251Z,20.40
2018-01-22T07:36:29.253Z,19.90
2018-01-22T07:37:29.261Z,18.70
2018-01-22T07:38:29.273Z,19.90
2018-01-22T07:39:29.273Z,20.00
2018-01-22T07:40:29.279Z,20.90
2018-01-22T07:41:29.275Z,20.90
2018-01-22T07:42:29.277Z,21.80
2018-01-22T07:43:29.291Z,19.90
2018-01-22T07:44:29.291Z,21.40
2018-01-22T07:45:29.299Z,19.20
2018-01-22T07:46:29.308Z,19.50
2018-01-22T07:47:29.312Z,21.40
2018-01-22T07:48:29.313Z,22.10
2018-01-22T07:49:29.357Z,22.60
2018-01-22T07:50:29.341Z,21.70
2018-01-22T07:51:29.326Z,23.00
2018-01-22T07:52:29.339Z,21.30
2018-01-22T07:53:29.333Z,21.90
2018-01-22T07:54:29.347Z,20.50
2018-01-22T07:55:29.351Z,21.60
2018-01-22T07:56:29.369Z,21.70
2018-01-22T07:57:29.352Z,21.90
2018-01-22T07:58:29.381Z,20.50
2018-01-22T07:59:29.394Z,18.80
2018-01-22T08:00:29.372Z,20.70
2018-01-22T08:01:29.378Z,21.00
2018-01-22T08:02:29.437Z,19.60
2018-01-22T08:03:29.397Z,19.40
2018-01-22T08:04:29.399Z,18.50
2018-01-22T08:05:29.401Z,20.30
2018-01-22T08:06:29.426Z,18.70
2018-01-22T08:07:29.404Z,18.90
2018-01-22T08:08:29.412Z,18.50
2018-01-22T08:09:29.418Z,19.10
2018-01-22T08:10:29.433Z,20.20
2018-01-22T08:11:29.456Z,19.10
2018-01-22T08:12:29.464Z,20.00
2018-01-22T08:13:29.435Z,20.00
2018-01-22T08:14:29.447Z,19.90
2018-01-22T08:15:29.445Z,18.80
2018-01-22T08:16:29.484Z,20.20
2018-01-22T08:17:29.453Z,20.80
2018-01-22T08:18:29.454Z,20.20
2018-01-22T08:19:29.463Z,19.70
2018-01-22T08:20:29.487Z,19.50
2018-01-22T08:21:29.473Z,19.70
2018-01-22T08:22:29.483Z,21.00
2018-01-22T08:23:29.490Z,22.50
2018-01-22T08:24:29.492Z,20.70
2018-01-22T08:25:29.534Z,19.50
2018-01-22T08:26:29.521Z,21.20
2018-01-22T08:27:29.528Z,21.90
2018-01-22T08:28:29.515Z,19.70
2018-01-22T08:29:29.514Z,22.80
2018-01-22T08:30:29.528Z,20.40
2018-01-22T08:31:29.524Z,21.00
2018-01-22T08:32:29.550Z,20.10
2018-01-22T08:33:29.559Z,20.70
2018-01-22T08:34:29.575Z,21.40
2018-01-22T08:35:29.560Z,21.70
2018-01-22T08:36:29.576Z,20.10
2018-01-22T08:37:29.572Z,21.50
2018-01-22T08:38:29.565Z,22.10
2018-01-22T08:39:29.661Z,21.30
2018-01-22T08:40:29.589Z,21.50
2018-01-22T08:41:29.592Z,22.90
2018-01-22T08:42:29.602Z,20.90
2018-01-22T08:43:29.596Z,21.90
2018-01-22T08:44:29.594Z,22.50
2018-01-22T08:45:29.584Z,24.90
2018-01-22T08:46:29.603Z,25.60
2018-01-22T08:47:29.604Z,25.30
2018-01-22T08:48:29.621Z,24.10
2018-01-22T08:49:29.618Z,25.40
2018-01-22T08:50:29.664Z,28.00
2018-01-22T08:51:29.654Z,26.10
2018-01-22T08:52:29.631Z,26.50
2018-01-22T08:53:29.663Z,25.30
2018-01-22T08:54:29.644Z,26.50
2018-01-22T08:55:29.647Z,28.50
2018-01-22T08:56:29.645Z,27.50
2018-01-22T08:57:29.946Z,27.90
2018-01-22T08:58:29.953Z,28.40
2018-01-22T08:59:29.711Z,29.50
2018-01-22T09:00:29.692Z,28.70
2018-01-22T09:01:29.730Z,29.40
2018-01-22T09:02:29.731Z,29.90
2018-01-22T09:03:29.839Z,30.10
2018-01-22T09:04:29.998Z,31.30
2018-01-22T09:05:29.787Z,32.00
2018-01-22T09:06:30.002Z,31.90
2018-01-22T09:07:29.713Z,31.50
2018-01-22T09:08:29.884Z,30.70
2018-01-22T09:09:29.727Z,30.80
2018-01-22T09:10:29.863Z,30.60
2018-01-22T09:11:30.022Z,32.70
2018-01-22T09:12:30.023Z,31.70
2018-01-22T09:13:29.980Z,31.80
2018-01-22T09:14:29.898Z,32.40
2018-01-22T09:15:29.755Z,34.30
2018-01-22T09:16:30.051Z,33.60
2018-01-22T09:17:29.958Z,31.80
2018-01-22T09:18:30.051Z,33.60
2018-01-22T09:19:29.914Z,31.70
2018-01-22T09:20:29.790Z,31.70
2018-01-22T09:21:30.039Z,32.30
2018-01-22T09:22:30.100Z,32.70
2018-01-22T09:23:29.952Z,33.50
2018-01-22T09:24:29.820Z,33.10
2018-01-22T09:25:29.810Z,33.60
2018-01-22T09:26:30.104Z,31.80
2018-01-22T09:27:29.945Z,33.70
2018-01-22T09:28:29.827Z,32.20
2018-01-22T09:29:29.828Z,33.50
2018-01-22T09:30:29.936Z,34.70
2018-01-22T09:31:29.849Z,34.30
2018-01-22T09:32:29.857Z,30.50
2018-01-22T09:33:29.858Z,33.20
2018-01-22T09:34:29.859Z,32.60
2018-01-22T09:35:29.871Z,32.00
2018-01-22T09:36:29.886Z,36.60
2018-01-22T09:37:29.883Z,31.50
2018-01-22T09:38:29.881Z,30.50
2018-01-22T09:39:29.891Z,29.50
2018-01-22T09:40:29.899Z,29.70
2018-01-22T09:41:29.904Z,27.80
2018-01-22T09:42:29.917Z,27.50
2018-01-22T09:43:29.917Z,27.70
2018-01-22T09:44:29.921Z,28.10
2018-01-22T09:45:29.925Z,27.10
2018-01-22T09:46:29.932Z,25.60
2018-01-22T09:47:29.970Z,23.40
2018-01-22T09:48:29.945Z,25.70
2018-01-22T09:49:29.950Z,25.50
2018-01-22T09:50:29.958Z,25.80
2018-01-22T09:51:29.955Z,25.40
2018-01-22T09:52:29.970Z,25.20
2018-01-22T09:53:29.963Z,24.50
2018-01-22T09:54:29.979Z,23.70
2018-01-22T09:55:29.982Z,22.90
2018-01-22T09:56:29.989Z,23.20
2018-01-22T09:57:29.992Z,22.20
2018-01-22T09:58:29.990Z,24.00
2018-01-22T09:59:30.014Z,24.40
2018-01-22T10:00:30.006Z,22.20
2018-01-22T10:01:30.018Z,22.00
2018-01-22T10:02:30.026Z,23.20
2018-01-22T10:03:30.027Z,23.60
2018-01-22T10:04:30.030Z,21.20
2018-01-22T10:05:30.042Z,22.40
2018-01-22T10:06:30.153Z,22.90
2018-01-22T10:07:30.117Z,21.90
2018-01-22T10:08:30.056Z,21.10
2018-01-22T10:09:30.057Z,20.30
2018-01-22T10:10:30.074Z,20.60
2018-01-22T10:11:30.071Z,20.20
2018-01-22T10:12:30.075Z,21.10
2018-01-22T10:13:30.096Z,20.00
2018-01-22T10:14:30.088Z,19.70
2018-01-22T10:15:30.103Z,20.80
2018-01-22T10:16:30.117Z,19.70
2018-01-22T10:17:30.113Z,20.10
2018-01-22T10:18:30.118Z,20.20
2018-01-22T10:19:30.128Z,19.70
2018-01-22T10:20:30.136Z,19.40
2018-01-22T10:21:30.132Z,19.00
2018-01-22T10:22:30.143Z,18.20
2018-01-22T10:23:30.151Z,19.10
2018-01-22T10:24:30.266Z,18.40
2018-01-22T10:25:30.164Z,21.40
2018-01-22T10:26:30.164Z,20.60
2018-01-22T10:27:30.173Z,18.90
2018-01-22T10:28:30.202Z,18.30
2018-01-22T10:29:30.193Z,18.80
2018-01-22T10:30:30.199Z,19.70
2018-01-22T10:31:30.205Z,16.20
2018-01-22T10:32:30.214Z,17.20
2018-01-22T10:33:30.262Z,17.60
2018-01-22T10:34:30.227Z,19.20
2018-01-22T10:35:30.235Z,16.60
2018-01-22T10:36:30.236Z,15.60
2018-01-22T10:37:30.233Z,14.90
2018-01-22T10:38:30.244Z,15.90
2018-01-22T10:39:30.247Z,16.80
2018-01-22T10:40:30.256Z,15.00
2018-01-22T10:41:30.262Z,15.30
2018-01-22T10:42:30.271Z,15.00
2018-01-22T10:43:30.284Z,15.50
2018-01-22T10:44:30.298Z,17.60
2018-01-22T10:45:30.294Z,14.80
2018-01-22T10:46:30.298Z,15.40
2018-01-22T10:47:30.300Z,15.90
2018-01-22T10:48:30.308Z,14.50
2018-01-22T10:49:30.324Z,16.30
2018-01-22T10:50:30.318Z,16.10
2018-01-22T10:51:30.328Z,16.30
2018-01-22T10:52:30.330Z,16.10
2018-01-22T10:53:30.340Z,16.30
2018-01-22T10:54:30.346Z,17.30
2018-01-22T10:55:30.358Z,16.60
2018-01-22T10:56:30.362Z,16.80
2018-01-22T10:57:30.386Z,18.00
2018-01-22T10:58:30.372Z,18.90
2018-01-22T10:59:30.384Z,16.90
2018-01-22T11:00:30.392Z,18.20
2018-01-22T11:01:30.409Z,17.70
2018-01-22T11:02:30.400Z,19.30
2018-01-22T11:03:30.410Z,17.90
2018-01-22T11:04:30.412Z,19.50
2018-01-22T11:05:30.420Z,19.90
2018-01-22T11:06:30.427Z,19.90
2018-01-22T11:07:30.435Z,18.60
2018-01-22T11:08:30.439Z,19.80
2018-01-22T11:09:30.448Z,19.90
2018-01-22T11:10:30.458Z,20.70
2018-01-22T11:11:30.454Z,20.50
2018-01-22T11:12:30.471Z,20.70
2018-01-22T11:13:30.469Z,19.40
2018-01-22T11:14:30.481Z,21.00
2018-01-22T11:15:30.489Z,20.50
2018-01-22T11:16:30.488Z,21.80
2018-01-22T11:17:30.502Z,21.30
2018-01-22T11:18:30.511Z,21.80
2018-01-22T11:19:30.518Z,23.00
2018-01-22T11:20:30.518Z,23.00
2018-01-22T11:21:30.524Z,22.10
2018-01-22T11:22:30.539Z,23.20
2018-01-22T11:23:30.540Z,21.90
2018-01-22T11:24:30.551Z,22.00
2018-01-22T11:25:30.553Z,25.20
2018-01-22T11:26:30.563Z,25.40
2018-01-22T11:27:30.570Z,24.80
2018-01-22T11:28:30.577Z,23.70
2018-01-22T11:29:30.593Z,24.90
2018-01-22T11:30:30.586Z,24.20
2018-01-22T11:31:30.596Z,25.00
2018-01-22T11:32:30.606Z,26.50
2018-01-22T11:33:30.604Z,26.40
2018-01-22T11:34:30.619Z,26.80
2018-01-22T11:35:30.623Z,25.50
2018-01-22T11:36:30.640Z,25.40
2018-01-22T11:37:30.651Z,25.10
2018-01-22T11:38:30.641Z,26.90
2018-01-22T11:39:30.647Z,26.30
2018-01-22T11:40:30.667Z,25.30
2018-01-22T11:41:30.668Z,25.30
2018-01-22T11:42:30.676Z,25.00
2018-01-22T11:43:30.679Z,26.00
2018-01-22T11:44:30.688Z,25.10
2018-01-22T11:45:30.701Z,26.40
2018-01-22T11:46:30.705Z,25.60
2018-01-22T11:47:30.714Z,26.00
2018-01-22T11:48:30.784Z,26.20
2018-01-22T11:49:30.737Z,27.10
2018-01-22T11:50:30.752Z,24.60
2018-01-22T11:51:30.732Z,26.10
2018-01-22T11:52:30.747Z,25.40
2018-01-22T11:53:30.748Z,23.30
2018-01-22T11:54:30.760Z,25.00
2018-01-22T11:55:30.766Z,23.40
2018-01-22T11:56:30.772Z,24.00
2018-01-22T11:57:30.797Z,24.90
2018-01-22T11:58:30.800Z,25.70
2018-01-22T11:59:30.802Z,25.70
2018-01-22T12:00:30.799Z,25.10
2018-01-22T12:01:30.809Z,26.80
2018-01-22T12:02:30.812Z,25.20
2018-01-22T12:03:30.829Z,26.00
2018-01-22T12:04:30.820Z,26.40
2018-01-22T12:05:30.834Z,24.60
2018-01-22T12:06:30.844Z,25.30
2018-01-22T12:07:30.843Z,24.20
2018-01-22T12:08:30.893Z,24.30
2018-01-22T12:09:30.863Z,25.80
2018-01-22T12:10:30.869Z,25.30
2018-01-22T12:11:30.874Z,24.00
2018-01-22T12:12:30.890Z,24.90
2018-01-22T12:13:31.383Z,23.30
2018-01-22T12:14:30.900Z,25.00
2018-01-22T12:15:30.905Z,23.90
2018-01-22T12:16:30.916Z,23.40
2018-01-22T12:17:30.917Z,22.50
2018-01-22T12:18:30.928Z,22.40
2018-01-22T12:19:30.927Z,22.60
2018-01-22T12:20:30.960Z,23.90
2018-01-22T12:21:30.951Z,22.20
2018-01-22T12:22:30.952Z,23.70
2018-01-22T12:23:30.965Z,23.90
2018-01-22T12:24:30.977Z,23.50
2018-01-22T12:25:30.984Z,23.10
2018-01-22T12:26:30.990Z,21.60
2018-01-22T12:27:30.992Z,21.40
2018-01-22T12:28:30.993Z,21.70
2018-01-22T12:29:31.019Z,20.20
2018-01-22T12:30:31.022Z,19.90
2018-01-22T12:31:31.021Z,19.90
2018-01-22T12:32:31.042Z,21.50
2018-01-22T12:33:31.045Z,20.00
2018-01-22T12:34:31.042Z,20.00
2018-01-22T12:35:31.053Z,20.30
2018-01-22T12:36:31.122Z,19.40
2018-01-22T12:37:31.086Z,20.70
2018-01-22T12:38:31.093Z,19.00
2018-01-22T12:39:31.089Z,20.20
2018-01-22T12:40:31.095Z,17.10
2018-01-22T12:41:31.098Z,18.40
2018-01-22T12:42:31.119Z,19.20
2018-01-22T12:43:31.117Z,18.60
2018-01-22T12:44:31.128Z,22.60
2018-01-22T12:45:31.135Z,21.50
2018-01-22T12:46:31.128Z,18.30
2018-01-22T12:47:31.141Z,18.50
2018-01-22T12:48:31.155Z,17.10
2018-01-22T12:49:31.160Z,18.30
2018-01-22T12:50:31.159Z,17.90
2018-01-22T12:51:31.281Z,17.70
2018-01-22T12:52:31.182Z,16.70
2018-01-22T12:53:31.200Z,17.60
2018-01-22T12:54:31.205Z,17.50
2018-01-22T12:55:31.211Z,17.20
2018-01-22T12:56:31.217Z,17.90
2018-01-22T12:57:31.225Z,17.50
2018-01-22T12:58:31.239Z,16.90
2018-01-22T12:59:31.255Z,17.30
2018-01-22T13:00:31.249Z,16.40
2018-01-22T13:01:31.288Z,16.40
2018-01-22T13:02:31.269Z,15.70
2018-01-22T13:03:31.280Z,15.70